sensor_id;sensor_type;location;lat;lon;timestamp;P1;durP1;ratioP1;P2;durP2;ratioP2
7027;SDS011;3555;53.248;10.336;2024-02-21T00:02:20;31.30;;;11.07;;
7027;SDS011;3555;53.248;10.336;2024-02-21T00:04:49;32.23;;;12.40;;
7027;SDS011;3555;53.248;10.336;2024-02-21T00:07:15;27.83;;;11.20;;
7027;SDS011;3555;53.248;10.336;2024-02-21T00:09:42;28.37;;;13.63;;
7027;SDS011;3555;53.248;10.336;2024-02-21T00:12:09;29.97;;;11.90;;
7027;SDS011;3555;53.248;10.336;2024-02-21T00:14:38;29.07;;;11.43;;
7027;SDS011;3555;53.248;10.336;2024-02-21T00:17:05;28.10;;;11.23;;
7027;SDS011;3555;53.248;10.336;2024-02-21T00:19:33;26.57;;;13.17;;
7027;SDS011;3555;53.248;10.336;2024-02-21T00:22:01;26.77;;;10.97;;
7027;SDS011;3555;53.248;10.336;2024-02-21T00:24:28;22.73;;;10.63;;
7027;SDS011;3555;53.248;10.336;2024-02-21T00:26:55;23.27;;;10.73;;
7027;SDS011;3555;53.248;10.336;2024-02-21T00:29:22;24.37;;;11.10;;
7027;SDS011;3555;53.248;10.336;2024-02-21T00:31:49;25.70;;;10.33;;
7027;SDS011;3555;53.248;10.336;2024-02-21T00:34:16;25.43;;;11.60;;
7027;SDS011;3555;53.248;10.336;2024-02-21T00:36:42;25.27;;;10.60;;
7027;SDS011;3555;53.248;10.336;2024-02-21T00:39:10;25.07;;;11.43;;
7027;SDS011;3555;53.248;10.336;2024-02-21T00:41:37;21.93;;;10.47;;
7027;SDS011;3555;53.248;10.336;2024-02-21T00:44:04;31.83;;;12.30;;
7027;SDS011;3555;53.248;10.336;2024-02-21T00:46:31;23.13;;;11.70;;
7027;SDS011;3555;53.248;10.336;2024-02-21T00:48:58;22.53;;;11.10;;
7027;SDS011;3555;53.248;10.336;2024-02-21T00:51:25;19.63;;;10.13;;
7027;SDS011;3555;53.248;10.336;2024-02-21T00:53:52;20.63;;;11.13;;
7027;SDS011;3555;53.248;10.336;2024-02-21T00:56:20;20.83;;;10.90;;
7027;SDS011;3555;53.248;10.336;2024-02-21T00:58:47;25.43;;;12.67;;
7027;SDS011;3555;53.248;10.336;2024-02-21T01:01:20;22.70;;;12.23;;
7027;SDS011;3555;53.248;10.336;2024-02-21T01:03:47;19.37;;;11.17;;
7027;SDS011;3555;53.248;10.336;2024-02-21T01:06:14;29.10;;;11.83;;
7027;SDS011;3555;53.248;10.336;2024-02-21T01:08:41;22.83;;;11.00;;
7027;SDS011;3555;53.248;10.336;2024-02-21T01:11:08;23.73;;;12.00;;
7027;SDS011;3555;53.248;10.336;2024-02-21T01:13:36;23.07;;;12.10;;
7027;SDS011;3555;53.248;10.336;2024-02-21T01:16:03;23.93;;;11.43;;
7027;SDS011;3555;53.248;10.336;2024-02-21T01:18:31;21.93;;;12.23;;
7027;SDS011;3555;53.248;10.336;2024-02-21T01:20:58;22.83;;;12.03;;
7027;SDS011;3555;53.248;10.336;2024-02-21T01:23:25;21.80;;;12.47;;
7027;SDS011;3555;53.248;10.336;2024-02-21T01:25:52;24.30;;;13.53;;
7027;SDS011;3555;53.248;10.336;2024-02-21T01:28:19;27.87;;;12.97;;
7027;SDS011;3555;53.248;10.336;2024-02-21T01:30:47;23.63;;;12.30;;
7027;SDS011;3555;53.248;10.336;2024-02-21T01:33:14;23.60;;;11.63;;
7027;SDS011;3555;53.248;10.336;2024-02-21T01:35:41;24.00;;;12.33;;
7027;SDS011;3555;53.248;10.336;2024-02-21T01:38:07;25.03;;;12.90;;
7027;SDS011;3555;53.248;10.336;2024-02-21T01:40:35;27.77;;;12.80;;
7027;SDS011;3555;53.248;10.336;2024-02-21T01:43:02;23.83;;;12.57;;
7027;SDS011;3555;53.248;10.336;2024-02-21T01:45:29;23.20;;;13.40;;
7027;SDS011;3555;53.248;10.336;2024-02-21T01:47:57;26.70;;;12.43;;
7027;SDS011;3555;53.248;10.336;2024-02-21T01:50:24;27.80;;;13.27;;
7027;SDS011;3555;53.248;10.336;2024-02-21T01:52:51;25.87;;;12.33;;
7027;SDS011;3555;53.248;10.336;2024-02-21T01:55:18;28.73;;;13.77;;
7027;SDS011;3555;53.248;10.336;2024-02-21T01:57:45;30.93;;;13.53;;
7027;SDS011;3555;53.248;10.336;2024-02-21T02:00:13;25.77;;;13.40;;
7027;SDS011;3555;53.248;10.336;2024-02-21T02:02:40;26.63;;;13.73;;
7027;SDS011;3555;53.248;10.336;2024-02-21T02:05:10;24.80;;;12.83;;
7027;SDS011;3555;53.248;10.336;2024-02-21T02:07:37;25.10;;;13.87;;
7027;SDS011;3555;53.248;10.336;2024-02-21T02:10:04;23.90;;;12.77;;
7027;SDS011;3555;53.248;10.336;2024-02-21T02:12:32;28.13;;;13.77;;
7027;SDS011;3555;53.248;10.336;2024-02-21T02:14:59;28.97;;;13.43;;
7027;SDS011;3555;53.248;10.336;2024-02-21T02:17:26;28.63;;;14.13;;
7027;SDS011;3555;53.248;10.336;2024-02-21T02:19:53;31.00;;;14.40;;
7027;SDS011;3555;53.248;10.336;2024-02-21T02:22:22;29.03;;;14.67;;
7027;SDS011;3555;53.248;10.336;2024-02-21T02:24:52;26.93;;;15.27;;
7027;SDS011;3555;53.248;10.336;2024-02-21T02:27:19;32.57;;;14.93;;
7027;SDS011;3555;53.248;10.336;2024-02-21T02:29:47;29.60;;;14.87;;
7027;SDS011;3555;53.248;10.336;2024-02-21T02:32:14;23.60;;;13.60;;
7027;SDS011;3555;53.248;10.336;2024-02-21T02:34:42;29.97;;;15.13;;
7027;SDS011;3555;53.248;10.336;2024-02-21T02:37:09;29.87;;;14.83;;
7027;SDS011;3555;53.248;10.336;2024-02-21T02:39:35;24.93;;;13.23;;
7027;SDS011;3555;53.248;10.336;2024-02-21T02:42:04;28.73;;;13.70;;
7027;SDS011;3555;53.248;10.336;2024-02-21T02:44:31;26.00;;;13.43;;
7027;SDS011;3555;53.248;10.336;2024-02-21T02:46:58;28.03;;;14.30;;
7027;SDS011;3555;53.248;10.336;2024-02-21T02:49:25;25.50;;;13.23;;
7027;SDS011;3555;53.248;10.336;2024-02-21T02:51:51;28.07;;;15.73;;
7027;SDS011;3555;53.248;10.336;2024-02-21T02:54:18;29.43;;;14.03;;
7027;SDS011;3555;53.248;10.336;2024-02-21T02:56:45;36.57;;;16.13;;
7027;SDS011;3555;53.248;10.336;2024-02-21T02:59:13;31.77;;;15.13;;
7027;SDS011;3555;53.248;10.336;2024-02-21T03:01:40;31.60;;;14.60;;
7027;SDS011;3555;53.248;10.336;2024-02-21T03:04:07;30.20;;;15.43;;
7027;SDS011;3555;53.248;10.336;2024-02-21T03:06:34;28.43;;;15.30;;
7027;SDS011;3555;53.248;10.336;2024-02-21T03:09:01;29.37;;;14.30;;
7027;SDS011;3555;53.248;10.336;2024-02-21T03:11:33;36.60;;;16.33;;
7027;SDS011;3555;53.248;10.336;2024-02-21T03:14:00;29.40;;;15.63;;
7027;SDS011;3555;53.248;10.336;2024-02-21T03:16:28;35.03;;;14.83;;
7027;SDS011;3555;53.248;10.336;2024-02-21T03:18:55;33.57;;;15.90;;
7027;SDS011;3555;53.248;10.336;2024-02-21T03:21:22;31.53;;;15.50;;
7027;SDS011;3555;53.248;10.336;2024-02-21T03:23:49;33.50;;;14.73;;
7027;SDS011;3555;53.248;10.336;2024-02-21T03:26:15;26.37;;;15.33;;
7027;SDS011;3555;53.248;10.336;2024-02-21T03:28:42;27.93;;;14.33;;
7027;SDS011;3555;53.248;10.336;2024-02-21T03:31:11;29.93;;;14.47;;
7027;SDS011;3555;53.248;10.336;2024-02-21T03:33:40;32.40;;;15.13;;
7027;SDS011;3555;53.248;10.336;2024-02-21T03:36:12;28.13;;;13.90;;
7027;SDS011;3555;53.248;10.336;2024-02-21T03:38:39;29.43;;;14.23;;
7027;SDS011;3555;53.248;10.336;2024-02-21T03:41:06;29.57;;;14.07;;
7027;SDS011;3555;53.248;10.336;2024-02-21T03:43:33;29.90;;;14.63;;
7027;SDS011;3555;53.248;10.336;2024-02-21T03:46:00;29.03;;;14.70;;
7027;SDS011;3555;53.248;10.336;2024-02-21T03:48:27;36.83;;;16.03;;
7027;SDS011;3555;53.248;10.336;2024-02-21T03:50:55;30.30;;;14.07;;
7027;SDS011;3555;53.248;10.336;2024-02-21T03:53:22;32.90;;;14.67;;
7027;SDS011;3555;53.248;10.336;2024-02-21T03:55:49;29.77;;;14.47;;
7027;SDS011;3555;53.248;10.336;2024-02-21T03:58:16;24.57;;;13.83;;
7027;SDS011;3555;53.248;10.336;2024-02-21T04:00:43;25.07;;;13.17;;
7027;SDS011;3555;53.248;10.336;2024-02-21T04:03:09;28.57;;;13.83;;
7027;SDS011;3555;53.248;10.336;2024-02-21T04:05:36;27.97;;;13.90;;
7027;SDS011;3555;53.248;10.336;2024-02-21T04:08:05;23.53;;;12.77;;
7027;SDS011;3555;53.248;10.336;2024-02-21T04:10:33;30.07;;;13.07;;
7027;SDS011;3555;53.248;10.336;2024-02-21T04:13:00;25.93;;;13.30;;
7027;SDS011;3555;53.248;10.336;2024-02-21T04:15:26;29.40;;;13.80;;
7027;SDS011;3555;53.248;10.336;2024-02-21T04:17:53;25.47;;;13.07;;
7027;SDS011;3555;53.248;10.336;2024-02-21T04:20:20;23.20;;;11.70;;
7027;SDS011;3555;53.248;10.336;2024-02-21T04:22:47;27.93;;;14.00;;
7027;SDS011;3555;53.248;10.336;2024-02-21T04:25:15;25.97;;;13.60;;
7027;SDS011;3555;53.248;10.336;2024-02-21T04:27:42;22.50;;;12.43;;
7027;SDS011;3555;53.248;10.336;2024-02-21T04:30:09;28.73;;;13.23;;
7027;SDS011;3555;53.248;10.336;2024-02-21T04:32:36;31.73;;;13.03;;
7027;SDS011;3555;53.248;10.336;2024-02-21T04:35:03;24.00;;;13.40;;
7027;SDS011;3555;53.248;10.336;2024-02-21T04:37:32;27.37;;;12.50;;
7027;SDS011;3555;53.248;10.336;2024-02-21T04:39:59;25.80;;;12.67;;
7027;SDS011;3555;53.248;10.336;2024-02-21T04:42:27;26.83;;;13.47;;
7027;SDS011;3555;53.248;10.336;2024-02-21T04:44:54;26.83;;;14.33;;
7027;SDS011;3555;53.248;10.336;2024-02-21T04:47:20;22.63;;;12.67;;
7027;SDS011;3555;53.248;10.336;2024-02-21T04:49:48;27.47;;;12.53;;
7027;SDS011;3555;53.248;10.336;2024-02-21T04:52:15;22.80;;;12.83;;
7027;SDS011;3555;53.248;10.336;2024-02-21T04:54:42;26.20;;;13.53;;
7027;SDS011;3555;53.248;10.336;2024-02-21T04:57:09;26.50;;;13.07;;
7027;SDS011;3555;53.248;10.336;2024-02-21T04:59:37;23.13;;;12.60;;
7027;SDS011;3555;53.248;10.336;2024-02-21T05:02:04;26.20;;;13.43;;
7027;SDS011;3555;53.248;10.336;2024-02-21T05:04:31;23.27;;;13.10;;
7027;SDS011;3555;53.248;10.336;2024-02-21T05:06:59;23.13;;;13.07;;
7027;SDS011;3555;53.248;10.336;2024-02-21T05:09:27;25.60;;;14.47;;
7027;SDS011;3555;53.248;10.336;2024-02-21T05:11:53;22.47;;;13.60;;
7027;SDS011;3555;53.248;10.336;2024-02-21T05:14:20;20.03;;;11.23;;
7027;SDS011;3555;53.248;10.336;2024-02-21T05:16:48;24.00;;;12.83;;
7027;SDS011;3555;53.248;10.336;2024-02-21T05:19:15;26.50;;;13.27;;
7027;SDS011;3555;53.248;10.336;2024-02-21T05:21:42;21.53;;;12.40;;
7027;SDS011;3555;53.248;10.336;2024-02-21T05:24:09;30.17;;;12.73;;
7027;SDS011;3555;53.248;10.336;2024-02-21T05:26:36;26.27;;;13.40;;
7027;SDS011;3555;53.248;10.336;2024-02-21T05:29:03;21.87;;;12.13;;
7027;SDS011;3555;53.248;10.336;2024-02-21T05:31:42;27.93;;;13.97;;
7027;SDS011;3555;53.248;10.336;2024-02-21T05:34:22;23.23;;;11.97;;
7027;SDS011;3555;53.248;10.336;2024-02-21T05:36:49;20.30;;;12.37;;
7027;SDS011;3555;53.248;10.336;2024-02-21T05:39:16;21.80;;;12.17;;
7027;SDS011;3555;53.248;10.336;2024-02-21T05:41:43;21.90;;;13.03;;
7027;SDS011;3555;53.248;10.336;2024-02-21T05:44:10;22.60;;;12.43;;
7027;SDS011;3555;53.248;10.336;2024-02-21T05:46:38;22.80;;;12.57;;
7027;SDS011;3555;53.248;10.336;2024-02-21T05:49:04;21.27;;;12.27;;
7027;SDS011;3555;53.248;10.336;2024-02-21T05:51:33;23.87;;;12.57;;
7027;SDS011;3555;53.248;10.336;2024-02-21T05:54:00;17.90;;;11.03;;
7027;SDS011;3555;53.248;10.336;2024-02-21T05:56:27;20.63;;;12.07;;
7027;SDS011;3555;53.248;10.336;2024-02-21T05:58:54;21.90;;;11.90;;
7027;SDS011;3555;53.248;10.336;2024-02-21T06:01:21;20.10;;;11.60;;
7027;SDS011;3555;53.248;10.336;2024-02-21T06:03:48;19.20;;;12.13;;
7027;SDS011;3555;53.248;10.336;2024-02-21T06:06:15;21.30;;;11.73;;
7027;SDS011;3555;53.248;10.336;2024-02-21T06:08:43;20.77;;;11.37;;
7027;SDS011;3555;53.248;10.336;2024-02-21T06:11:10;21.00;;;10.87;;
7027;SDS011;3555;53.248;10.336;2024-02-21T06:13:38;22.13;;;10.77;;
7027;SDS011;3555;53.248;10.336;2024-02-21T06:16:05;15.67;;;10.40;;
7027;SDS011;3555;53.248;10.336;2024-02-21T06:18:35;19.77;;;9.87;;
7027;SDS011;3555;53.248;10.336;2024-02-21T06:21:02;19.47;;;10.47;;
7027;SDS011;3555;53.248;10.336;2024-02-21T06:23:29;18.13;;;9.63;;
7027;SDS011;3555;53.248;10.336;2024-02-21T06:25:58;17.47;;;10.70;;
7027;SDS011;3555;53.248;10.336;2024-02-21T06:28:24;16.83;;;10.37;;
7027;SDS011;3555;53.248;10.336;2024-02-21T06:30:51;15.80;;;9.93;;
7027;SDS011;3555;53.248;10.336;2024-02-21T06:33:18;18.20;;;10.70;;
7027;SDS011;3555;53.248;10.336;2024-02-21T06:35:47;13.73;;;9.47;;
7027;SDS011;3555;53.248;10.336;2024-02-21T06:38:17;12.93;;;9.20;;
7027;SDS011;3555;53.248;10.336;2024-02-21T06:40:44;18.20;;;9.33;;
7027;SDS011;3555;53.248;10.336;2024-02-21T06:43:16;17.87;;;9.70;;
7027;SDS011;3555;53.248;10.336;2024-02-21T06:45:44;13.47;;;9.27;;
7027;SDS011;3555;53.248;10.336;2024-02-21T06:48:12;16.00;;;9.40;;
7027;SDS011;3555;53.248;10.336;2024-02-21T06:50:39;17.23;;;10.30;;
7027;SDS011;3555;53.248;10.336;2024-02-21T06:53:06;14.27;;;9.00;;
7027;SDS011;3555;53.248;10.336;2024-02-21T06:55:33;16.87;;;9.60;;
7027;SDS011;3555;53.248;10.336;2024-02-21T06:58:00;15.83;;;9.00;;
7027;SDS011;3555;53.248;10.336;2024-02-21T07:00:28;13.97;;;8.57;;
7027;SDS011;3555;53.248;10.336;2024-02-21T07:02:55;10.70;;;7.90;;
7027;SDS011;3555;53.248;10.336;2024-02-21T07:05:23;12.37;;;7.80;;
7027;SDS011;3555;53.248;10.336;2024-02-21T07:07:50;10.73;;;7.50;;
7027;SDS011;3555;53.248;10.336;2024-02-21T07:10:17;12.57;;;8.00;;
7027;SDS011;3555;53.248;10.336;2024-02-21T07:12:43;14.23;;;7.40;;
7027;SDS011;3555;53.248;10.336;2024-02-21T07:15:10;11.43;;;6.90;;
7027;SDS011;3555;53.248;10.336;2024-02-21T07:17:38;11.27;;;7.00;;
7027;SDS011;3555;53.248;10.336;2024-02-21T07:20:06;10.60;;;7.30;;
7027;SDS011;3555;53.248;10.336;2024-02-21T07:22:33;11.00;;;7.00;;
7027;SDS011;3555;53.248;10.336;2024-02-21T07:25:00;12.67;;;7.33;;
7027;SDS011;3555;53.248;10.336;2024-02-21T07:27:27;10.10;;;6.90;;
7027;SDS011;3555;53.248;10.336;2024-02-21T07:29:56;10.80;;;6.90;;
7027;SDS011;3555;53.248;10.336;2024-02-21T07:32:23;12.27;;;6.97;;
7027;SDS011;3555;53.248;10.336;2024-02-21T07:34:51;11.00;;;7.30;;
7027;SDS011;3555;53.248;10.336;2024-02-21T07:37:18;11.83;;;7.47;;
7027;SDS011;3555;53.248;10.336;2024-02-21T07:39:45;10.80;;;6.30;;
7027;SDS011;3555;53.248;10.336;2024-02-21T07:42:11;12.07;;;6.30;;
7027;SDS011;3555;53.248;10.336;2024-02-21T07:44:38;10.57;;;7.00;;
7027;SDS011;3555;53.248;10.336;2024-02-21T07:47:05;10.13;;;6.47;;
7027;SDS011;3555;53.248;10.336;2024-02-21T07:49:33;11.13;;;6.40;;
7027;SDS011;3555;53.248;10.336;2024-02-21T07:52:08;10.57;;;6.97;;
7027;SDS011;3555;53.248;10.336;2024-02-21T07:54:35;10.30;;;6.37;;
7027;SDS011;3555;53.248;10.336;2024-02-21T07:57:02;7.50;;;6.30;;
7027;SDS011;3555;53.248;10.336;2024-02-21T07:59:29;12.27;;;6.50;;
7027;SDS011;3555;53.248;10.336;2024-02-21T08:01:56;8.93;;;5.93;;
7027;SDS011;3555;53.248;10.336;2024-02-21T08:04:23;10.33;;;5.97;;
7027;SDS011;3555;53.248;10.336;2024-02-21T08:06:51;11.83;;;6.13;;
7027;SDS011;3555;53.248;10.336;2024-02-21T08:09:20;9.03;;;5.97;;
7027;SDS011;3555;53.248;10.336;2024-02-21T08:11:47;8.77;;;5.77;;
7027;SDS011;3555;53.248;10.336;2024-02-21T08:14:15;8.50;;;5.60;;
7027;SDS011;3555;53.248;10.336;2024-02-21T08:16:42;9.47;;;6.27;;
7027;SDS011;3555;53.248;10.336;2024-02-21T08:19:09;10.87;;;6.30;;
7027;SDS011;3555;53.248;10.336;2024-02-21T08:21:36;9.20;;;6.33;;
7027;SDS011;3555;53.248;10.336;2024-02-21T08:24:04;9.23;;;6.10;;
7027;SDS011;3555;53.248;10.336;2024-02-21T08:26:32;8.93;;;6.27;;
7027;SDS011;3555;53.248;10.336;2024-02-21T08:29:01;11.80;;;5.83;;
7027;SDS011;3555;53.248;10.336;2024-02-21T08:31:28;8.80;;;6.07;;
7027;SDS011;3555;53.248;10.336;2024-02-21T08:33:56;9.37;;;6.60;;
7027;SDS011;3555;53.248;10.336;2024-02-21T08:36:27;8.70;;;6.27;;
7027;SDS011;3555;53.248;10.336;2024-02-21T08:38:55;7.77;;;5.80;;
7027;SDS011;3555;53.248;10.336;2024-02-21T08:41:22;9.33;;;5.80;;
7027;SDS011;3555;53.248;10.336;2024-02-21T08:43:51;8.80;;;6.20;;
7027;SDS011;3555;53.248;10.336;2024-02-21T08:46:19;10.43;;;6.40;;
7027;SDS011;3555;53.248;10.336;2024-02-21T08:48:46;9.77;;;6.43;;
7027;SDS011;3555;53.248;10.336;2024-02-21T08:51:13;10.57;;;6.90;;
7027;SDS011;3555;53.248;10.336;2024-02-21T08:53:40;11.17;;;6.00;;
7027;SDS011;3555;53.248;10.336;2024-02-21T08:56:07;8.60;;;6.53;;
7027;SDS011;3555;53.248;10.336;2024-02-21T08:58:34;8.20;;;6.33;;
7027;SDS011;3555;53.248;10.336;2024-02-21T09:01:04;8.00;;;5.87;;
7027;SDS011;3555;53.248;10.336;2024-02-21T09:03:31;9.00;;;6.03;;
7027;SDS011;3555;53.248;10.336;2024-02-21T09:05:58;8.17;;;5.80;;
7027;SDS011;3555;53.248;10.336;2024-02-21T09:08:26;10.83;;;6.67;;
7027;SDS011;3555;53.248;10.336;2024-02-21T09:10:53;9.17;;;5.70;;
7027;SDS011;3555;53.248;10.336;2024-02-21T09:13:19;9.87;;;6.07;;
7027;SDS011;3555;53.248;10.336;2024-02-21T09:15:47;9.80;;;6.60;;
7027;SDS011;3555;53.248;10.336;2024-02-21T09:18:15;9.27;;;6.30;;
7027;SDS011;3555;53.248;10.336;2024-02-21T09:20:42;8.00;;;6.37;;
7027;SDS011;3555;53.248;10.336;2024-02-21T09:23:09;11.37;;;6.33;;
7027;SDS011;3555;53.248;10.336;2024-02-21T09:25:36;7.50;;;5.50;;
7027;SDS011;3555;53.248;10.336;2024-02-21T09:28:03;8.40;;;6.50;;
7027;SDS011;3555;53.248;10.336;2024-02-21T09:30:31;9.60;;;6.13;;
7027;SDS011;3555;53.248;10.336;2024-02-21T09:32:58;9.93;;;5.87;;
7027;SDS011;3555;53.248;10.336;2024-02-21T09:35:27;9.50;;;6.40;;
7027;SDS011;3555;53.248;10.336;2024-02-21T09:37:54;8.80;;;6.97;;
7027;SDS011;3555;53.248;10.336;2024-02-21T09:40:21;7.90;;;6.67;;
7027;SDS011;3555;53.248;10.336;2024-02-21T09:42:49;8.53;;;6.00;;
7027;SDS011;3555;53.248;10.336;2024-02-21T09:45:23;12.07;;;7.33;;
7027;SDS011;3555;53.248;10.336;2024-02-21T09:47:55;11.87;;;7.90;;
7027;SDS011;3555;53.248;10.336;2024-02-21T09:50:34;13.63;;;8.97;;
7027;SDS011;3555;53.248;10.336;2024-02-21T09:53:02;14.10;;;8.57;;
7027;SDS011;3555;53.248;10.336;2024-02-21T09:55:31;14.57;;;8.93;;
7027;SDS011;3555;53.248;10.336;2024-02-21T09:57:59;18.53;;;10.30;;
7027;SDS011;3555;53.248;10.336;2024-02-21T10:00:28;19.77;;;11.50;;
7027;SDS011;3555;53.248;10.336;2024-02-21T10:02:55;21.83;;;12.50;;
7027;SDS011;3555;53.248;10.336;2024-02-21T10:05:22;23.47;;;11.57;;
7027;SDS011;3555;53.248;10.336;2024-02-21T10:10:26;20.80;;;12.17;;
7027;SDS011;3555;53.248;10.336;2024-02-21T10:12:54;22.23;;;12.07;;
7027;SDS011;3555;53.248;10.336;2024-02-21T10:15:23;21.20;;;12.33;;
7027;SDS011;3555;53.248;10.336;2024-02-21T10:17:58;23.67;;;13.27;;
7027;SDS011;3555;53.248;10.336;2024-02-21T10:20:26;21.67;;;12.70;;
7027;SDS011;3555;53.248;10.336;2024-02-21T10:23:00;23.17;;;11.67;;
7027;SDS011;3555;53.248;10.336;2024-02-21T10:25:29;20.10;;;12.07;;
7027;SDS011;3555;53.248;10.336;2024-02-21T10:27:56;20.87;;;11.50;;
7027;SDS011;3555;53.248;10.336;2024-02-21T10:30:23;21.57;;;11.27;;
7027;SDS011;3555;53.248;10.336;2024-02-21T10:32:50;20.27;;;11.80;;
7027;SDS011;3555;53.248;10.336;2024-02-21T10:35:25;18.90;;;11.90;;
7027;SDS011;3555;53.248;10.336;2024-02-21T10:37:53;20.27;;;11.17;;
7027;SDS011;3555;53.248;10.336;2024-02-21T10:40:21;15.90;;;11.23;;
7027;SDS011;3555;53.248;10.336;2024-02-21T10:42:50;19.43;;;10.47;;
7027;SDS011;3555;53.248;10.336;2024-02-21T10:45:22;22.63;;;10.37;;
7027;SDS011;3555;53.248;10.336;2024-02-21T10:47:55;22.20;;;9.77;;
7027;SDS011;3555;53.248;10.336;2024-02-21T10:50:26;15.53;;;8.93;;
7027;SDS011;3555;53.248;10.336;2024-02-21T10:52:59;15.77;;;8.07;;
7027;SDS011;3555;53.248;10.336;2024-02-21T10:55:38;16.17;;;8.70;;
7027;SDS011;3555;53.248;10.336;2024-02-21T10:58:09;14.27;;;8.40;;
7027;SDS011;3555;53.248;10.336;2024-02-21T11:00:37;14.37;;;7.90;;
7027;SDS011;3555;53.248;10.336;2024-02-21T11:03:04;14.63;;;8.03;;
7027;SDS011;3555;53.248;10.336;2024-02-21T11:05:34;12.33;;;7.37;;
7027;SDS011;3555;53.248;10.336;2024-02-21T11:08:03;10.97;;;7.40;;
7027;SDS011;3555;53.248;10.336;2024-02-21T11:10:32;12.57;;;7.00;;
7027;SDS011;3555;53.248;10.336;2024-02-21T11:13:05;11.30;;;6.93;;
7027;SDS011;3555;53.248;10.336;2024-02-21T11:15:34;15.63;;;9.57;;
7027;SDS011;3555;53.248;10.336;2024-02-21T11:18:01;11.53;;;7.43;;
7027;SDS011;3555;53.248;10.336;2024-02-21T11:20:31;13.50;;;7.43;;
7027;SDS011;3555;53.248;10.336;2024-02-21T11:23:00;13.73;;;7.70;;
7027;SDS011;3555;53.248;10.336;2024-02-21T11:25:27;12.83;;;7.47;;
7027;SDS011;3555;53.248;10.336;2024-02-21T11:27:59;9.07;;;7.00;;
7027;SDS011;3555;53.248;10.336;2024-02-21T11:30:27;14.50;;;7.63;;
7027;SDS011;3555;53.248;10.336;2024-02-21T11:33:01;12.57;;;7.37;;
7027;SDS011;3555;53.248;10.336;2024-02-21T11:35:32;12.63;;;7.70;;
7027;SDS011;3555;53.248;10.336;2024-02-21T11:38:09;12.63;;;7.83;;
7027;SDS011;3555;53.248;10.336;2024-02-21T11:40:40;13.73;;;7.60;;
7027;SDS011;3555;53.248;10.336;2024-02-21T11:43:07;14.97;;;8.30;;
7027;SDS011;3555;53.248;10.336;2024-02-21T11:45:34;14.20;;;8.43;;
7027;SDS011;3555;53.248;10.336;2024-02-21T11:48:03;18.37;;;9.30;;
7027;SDS011;3555;53.248;10.336;2024-02-21T11:50:31;18.00;;;8.77;;
7027;SDS011;3555;53.248;10.336;2024-02-21T11:52:58;14.70;;;7.90;;
7027;SDS011;3555;53.248;10.336;2024-02-21T11:55:25;13.47;;;8.87;;
7027;SDS011;3555;53.248;10.336;2024-02-21T11:57:51;17.27;;;9.60;;
7027;SDS011;3555;53.248;10.336;2024-02-21T12:00:19;20.90;;;10.53;;
7027;SDS011;3555;53.248;10.336;2024-02-21T12:02:46;20.73;;;9.93;;
7027;SDS011;3555;53.248;10.336;2024-02-21T12:05:16;17.30;;;11.07;;
7027;SDS011;3555;53.248;10.336;2024-02-21T12:07:45;15.10;;;9.93;;
7027;SDS011;3555;53.248;10.336;2024-02-21T12:10:12;17.00;;;11.17;;
7027;SDS011;3555;53.248;10.336;2024-02-21T12:12:40;22.13;;;11.73;;
7027;SDS011;3555;53.248;10.336;2024-02-21T12:15:07;19.20;;;11.33;;
7027;SDS011;3555;53.248;10.336;2024-02-21T12:17:34;15.40;;;11.27;;
7027;SDS011;3555;53.248;10.336;2024-02-21T12:20:01;16.67;;;11.20;;
7027;SDS011;3555;53.248;10.336;2024-02-21T12:22:31;15.07;;;10.77;;
7027;SDS011;3555;53.248;10.336;2024-02-21T12:24:58;23.40;;;11.97;;
7027;SDS011;3555;53.248;10.336;2024-02-21T12:27:26;17.00;;;11.17;;
7027;SDS011;3555;53.248;10.336;2024-02-21T12:29:53;18.93;;;11.50;;
7027;SDS011;3555;53.248;10.336;2024-02-21T12:32:20;16.20;;;10.97;;
7027;SDS011;3555;53.248;10.336;2024-02-21T12:34:47;18.73;;;10.83;;
7027;SDS011;3555;53.248;10.336;2024-02-21T12:37:14;17.73;;;10.07;;
7027;SDS011;3555;53.248;10.336;2024-02-21T12:39:42;18.50;;;10.53;;
7027;SDS011;3555;53.248;10.336;2024-02-21T12:42:09;16.20;;;10.73;;
7027;SDS011;3555;53.248;10.336;2024-02-21T12:44:37;15.80;;;9.47;;
7027;SDS011;3555;53.248;10.336;2024-02-21T12:47:03;18.63;;;10.30;;
7027;SDS011;3555;53.248;10.336;2024-02-21T12:49:30;12.00;;;9.67;;
7027;SDS011;3555;53.248;10.336;2024-02-21T12:51:57;18.93;;;9.70;;
7027;SDS011;3555;53.248;10.336;2024-02-21T12:54:24;13.57;;;8.20;;
7027;SDS011;3555;53.248;10.336;2024-02-21T12:56:52;17.13;;;9.07;;
7027;SDS011;3555;53.248;10.336;2024-02-21T12:59:19;11.43;;;7.77;;
7027;SDS011;3555;53.248;10.336;2024-02-21T13:01:46;15.63;;;7.70;;
7027;SDS011;3555;53.248;10.336;2024-02-21T13:04:13;18.03;;;8.63;;
7027;SDS011;3555;53.248;10.336;2024-02-21T13:06:40;14.50;;;8.13;;
7027;SDS011;3555;53.248;10.336;2024-02-21T13:09:07;11.40;;;7.63;;
7027;SDS011;3555;53.248;10.336;2024-02-21T13:11:36;9.87;;;7.03;;
7027;SDS011;3555;53.248;10.336;2024-02-21T13:14:04;17.83;;;7.67;;
7027;SDS011;3555;53.248;10.336;2024-02-21T13:16:31;12.93;;;7.33;;
7027;SDS011;3555;53.248;10.336;2024-02-21T13:18:59;10.47;;;6.70;;
7027;SDS011;3555;53.248;10.336;2024-02-21T13:21:26;15.57;;;7.23;;
7027;SDS011;3555;53.248;10.336;2024-02-21T13:23:53;14.73;;;7.33;;
7027;SDS011;3555;53.248;10.336;2024-02-21T13:26:19;10.77;;;6.50;;
7027;SDS011;3555;53.248;10.336;2024-02-21T13:28:46;10.17;;;6.40;;
7027;SDS011;3555;53.248;10.336;2024-02-21T13:31:14;11.93;;;6.60;;
7027;SDS011;3555;53.248;10.336;2024-02-21T13:33:42;9.87;;;6.20;;
7027;SDS011;3555;53.248;10.336;2024-02-21T13:36:09;12.30;;;6.10;;
7027;SDS011;3555;53.248;10.336;2024-02-21T13:38:36;9.07;;;6.47;;
7027;SDS011;3555;53.248;10.336;2024-02-21T13:41:04;10.63;;;5.70;;
7027;SDS011;3555;53.248;10.336;2024-02-21T13:43:31;9.30;;;6.07;;
7027;SDS011;3555;53.248;10.336;2024-02-21T13:45:59;13.40;;;5.77;;
7027;SDS011;3555;53.248;10.336;2024-02-21T13:48:29;10.43;;;5.53;;
7027;SDS011;3555;53.248;10.336;2024-02-21T13:50:55;10.90;;;5.23;;
7027;SDS011;3555;53.248;10.336;2024-02-21T13:53:22;10.17;;;5.97;;
7027;SDS011;3555;53.248;10.336;2024-02-21T13:55:49;16.27;;;6.23;;
7027;SDS011;3555;53.248;10.336;2024-02-21T13:58:16;7.57;;;4.83;;
7027;SDS011;3555;53.248;10.336;2024-02-21T14:00:43;7.13;;;4.83;;
7027;SDS011;3555;53.248;10.336;2024-02-21T14:03:10;9.90;;;4.77;;
7027;SDS011;3555;53.248;10.336;2024-02-21T14:05:39;8.40;;;4.20;;
7027;SDS011;3555;53.248;10.336;2024-02-21T14:08:06;7.70;;;4.37;;
7027;SDS011;3555;53.248;10.336;2024-02-21T14:10:33;10.23;;;4.40;;
7027;SDS011;3555;53.248;10.336;2024-02-21T14:12:59;6.53;;;4.50;;
7027;SDS011;3555;53.248;10.336;2024-02-21T14:15:26;6.83;;;4.37;;
7027;SDS011;3555;53.248;10.336;2024-02-21T14:17:53;9.87;;;4.00;;
7027;SDS011;3555;53.248;10.336;2024-02-21T14:20:21;8.87;;;4.40;;
7027;SDS011;3555;53.248;10.336;2024-02-21T14:22:49;8.07;;;3.70;;
7027;SDS011;3555;53.248;10.336;2024-02-21T14:25:16;6.67;;;3.43;;
7027;SDS011;3555;53.248;10.336;2024-02-21T14:27:43;5.93;;;3.10;;
7027;SDS011;3555;53.248;10.336;2024-02-21T14:30:10;8.33;;;3.37;;
7027;SDS011;3555;53.248;10.336;2024-02-21T14:32:37;7.17;;;3.17;;
7027;SDS011;3555;53.248;10.336;2024-02-21T14:35:04;10.33;;;3.33;;
7027;SDS011;3555;53.248;10.336;2024-02-21T14:37:31;8.27;;;3.17;;
7027;SDS011;3555;53.248;10.336;2024-02-21T14:39:59;6.13;;;2.97;;
7027;SDS011;3555;53.248;10.336;2024-02-21T14:42:26;6.50;;;3.13;;
7027;SDS011;3555;53.248;10.336;2024-02-21T14:44:53;5.07;;;2.70;;
7027;SDS011;3555;53.248;10.336;2024-02-21T14:47:28;6.53;;;2.80;;
7027;SDS011;3555;53.248;10.336;2024-02-21T14:49:56;9.80;;;2.73;;